»·PEaware :: N9229P KAPA-KCYS

N9229P :: KAPA-KCYS

FLIGHT INFORMATION

Flight Status: Arrived
Operator: Privately registered:
United States
More flights under this callsign
Pilot: James W. (24810)
Aircraft: PIPER PA-24 COMMANCHE
(PA24)
More flights by this aircraft type
Origin: KAPA Centennial
United States
Destination: KCYS Cheyenne
United States
More flights between these airports :: More routes between these airports
Route: +DEN2 BJC WISER BARGR
File this flight plan on PilotEdge
Remarks:
Altitude:
(Current/Filed)
10,000ft
Speed:
(Current/Filed)
165kts
Departed: 24-Apr-20 07:13 PM
Arrived: 24-Apr-20 08:06 PM
Distance/Time
Traveled:
95nm/0:53
Distance/Time
To Go:
Arrived

Flight Plot

Page will automatically refresh every two minutes.

Flight plan parsing failed; only flown route is shown


Map Options




Map Legend


Flown Route
Filed Route
Departure Airport
Arrival Airport
Navaid (VOR, NDB)
Fix

Horizontal Profiles

Position Reports

Time Latitude Longitude Heading Altitude Ground
Speed
24-Apr-20 18:55 39.570926 -104.848358 177 5886ft 0kts
24-Apr-20 18:56 39.570926 -104.848358 177 5886ft 0kts
24-Apr-20 18:57 39.570926 -104.848358 177 5886ft 0kts
24-Apr-20 18:58 39.570926 -104.848358 177 5886ft 0kts
24-Apr-20 18:59 39.570926 -104.848358 177 5886ft 0kts
24-Apr-20 19:00 39.570926 -104.848358 177 5886ft 0kts
24-Apr-20 19:01 39.570926 -104.848358 177 5886ft 0kts
24-Apr-20 19:02 39.570926 -104.848358 177 5886ft 0kts
24-Apr-20 19:03 39.570926 -104.848358 177 5886ft 0kts
24-Apr-20 19:04 39.570918 -104.848827 343 5886ft 6kts
24-Apr-20 19:05 39.569703 -104.849398 178 5886ft 13kts
24-Apr-20 19:06 39.566212 -104.849247 177 5886ft 12kts
24-Apr-20 19:07 39.562075 -104.849061 178 5886ft 11kts
24-Apr-20 19:08 39.558863 -104.848900 178 5886ft 13kts
24-Apr-20 19:09 39.556830 -104.848977 255 5886ft 2kts
24-Apr-20 19:10 39.556822 -104.849025 261 5886ft 0kts
24-Apr-20 19:11 39.556822 -104.849025 261 5886ft 0kts
24-Apr-20 19:12 39.558473 -104.850298 358 5886ft 55kts
24-Apr-20 19:13 39.586149 -104.857535 328 6751ft 129kts
24-Apr-20 19:14 39.618869 -104.883802 328 7720ft 150kts
24-Apr-20 19:15 39.656618 -104.914100 328 8230ft 164kts
24-Apr-20 19:16 39.693836 -104.943968 328 8907ft 161kts
24-Apr-20 19:17 39.729908 -104.976402 324 9593ft 161kts
24-Apr-20 19:18 39.767419 -105.010027 325 10000ft 173kts
24-Apr-20 19:19 39.808582 -105.046488 325 10000ft 181kts
24-Apr-20 19:20 39.849042 -105.082383 325 9999ft 173kts
24-Apr-20 19:21 39.888789 -105.117724 325 9999ft 172kts
24-Apr-20 19:22 39.932385 -105.133698 12 9999ft 171kts
24-Apr-20 19:23 39.979120 -105.120865 11 9999ft 171kts
24-Apr-20 19:24 40.025742 -105.107962 11 9999ft 171kts
24-Apr-20 19:25 40.072491 -105.095098 11 9999ft 171kts
24-Apr-20 19:26 40.119250 -105.082144 11 10000ft 171kts
24-Apr-20 19:27 40.165916 -105.069158 11 10000ft 171kts
24-Apr-20 19:28 40.212712 -105.056116 11 10000ft 171kts
24-Apr-20 19:29 40.259305 -105.043113 11 10000ft 171kts
24-Apr-20 19:30 40.305974 -105.030071 11 10000ft 171kts
24-Apr-20 19:31 40.352651 -105.017008 11 10000ft 171kts
24-Apr-20 19:32 40.399321 -105.003929 11 10000ft 171kts
24-Apr-20 19:33 40.446103 -104.990799 11 9999ft 171kts
24-Apr-20 19:34 40.492692 -104.977705 11 9999ft 171kts
24-Apr-20 19:35 40.539339 -104.964576 11 9999ft 171kts
24-Apr-20 19:36 40.586021 -104.951418 11 9999ft 171kts
24-Apr-20 19:37 40.632687 -104.938246 11 9999ft 171kts
24-Apr-20 19:38 40.679284 -104.924963 12 9999ft 171kts
24-Apr-20 19:39 40.726058 -104.911680 11 9999ft 171kts
24-Apr-20 19:40 40.769858 -104.920780 311 10003ft 172kts
24-Apr-20 19:41 40.802637 -104.966593 313 9999ft 172kts
24-Apr-20 19:42 40.835634 -105.012527 313 9999ft 172kts
24-Apr-20 19:43 40.868528 -105.058490 313 9999ft 172kts
24-Apr-20 19:44 40.906228 -105.086600 352 10412ft 161kts
24-Apr-20 19:45 40.952296 -105.094795 352 10407ft 170kts
24-Apr-20 19:46 40.999477 -105.103079 352 10407ft 171kts
24-Apr-20 19:47 41.046782 -105.111390 352 10407ft 171kts
24-Apr-20 19:48 41.094129 -105.119723 352 10407ft 172kts
24-Apr-20 19:49 41.140379 -105.127859 352 10407ft 168kts
24-Apr-20 19:50 41.186373 -105.136721 338 10400ft 168kts
24-Apr-20 19:51 41.185201 -105.193263 261 10407ft 168kts
24-Apr-20 19:52 41.185997 -105.255245 275 10407ft 168kts
24-Apr-20 19:53 41.176298 -105.310120 193 10408ft 169kts
24-Apr-20 19:54 41.166308 -105.268876 48 10409ft 164kts
24-Apr-20 19:55 41.183812 -105.219553 95 10406ft 144kts
24-Apr-20 19:56 41.180696 -105.169628 94 10407ft 130kts
24-Apr-20 19:57 41.177874 -105.125707 94 10300ft 119kts
24-Apr-20 19:59 41.174732 -105.079730 94 9806ft 127kts
24-Apr-20 20:00 41.171522 -105.032507 94 9254ft 130kts
24-Apr-20 20:01 41.168205 -104.984314 94 8643ft 129kts
24-Apr-20 20:02 41.164802 -104.937253 94 7988ft 125kts
24-Apr-20 20:03 41.161724 -104.892076 94 7274ft 121kts
24-Apr-20 20:04 41.158799 -104.850364 94 6654ft 101kts
24-Apr-20 20:05 41.156476 -104.817416 93 6162ft 65kts
24-Apr-20 20:06 41.155584 -104.804552 97 6156ft 23kts
24-Apr-20 20:07 41.154793 -104.800322 228 6156ft 6kts

Navigation Log

Ident Type
Flight plan parsing failed, navigation log unavailable